Time;durP1;ratioP1;P1;durP2;ratioP2;P2;SDS_P1;SDS_P2;PMS_P1;PMS_P2;Temp;Humidity;BMP_temperature;BMP_pressure;BME280_temperature;BME280_humidity;BME280_pressure;Samples;Min_cycle;Max_cycle;Signal;HPM_P1;HPM_P2
2022/10/15 00:02:10;;;;;;;0.70;0.40;;;14.90;99.90;;;;;;5046043;28;20098;-86
2022/10/15 00:04:36;;;;;;;1.17;0.60;;;15.00;99.90;;;;;;5061671;28;20098;-86
2022/10/15 00:07:02;;;;;;;0.98;0.50;;;15.00;99.90;;;;;;5060503;28;20104;-85
2022/10/15 00:09:28;;;;;;;1.70;0.50;;;15.00;99.90;;;;;;5050932;28;20028;-86
2022/10/15 00:11:54;;;;;;;0.70;0.60;;;15.00;99.90;;;;;;5041204;28;20033;-85
2022/10/15 00:14:19;;;;;;;2.35;0.60;;;14.90;99.90;;;;;;5042688;28;20027;-86
2022/10/15 00:16:45;;;;;;;0.95;0.57;;;14.90;99.90;;;;;;5046657;28;20192;-86
2022/10/15 00:19:11;;;;;;;0.63;0.40;;;15.00;99.90;;;;;;5045015;28;20013;-86
2022/10/15 00:21:37;;;;;;;2.30;0.50;;;15.00;99.90;;;;;;5044464;28;20535;-85
2022/10/15 00:24:03;;;;;;;1.77;0.40;;;15.00;99.90;;;;;;5045792;28;20033;-85
2022/10/15 00:26:29;;;;;;;0.60;0.43;;;14.90;99.90;;;;;;5047147;28;20079;-85
2022/10/15 00:29:00;;;;;;;0.68;0.40;;;14.90;99.90;;;;;;5059608;28;20493;-85
2022/10/15 00:31:28;;;;;;;0.28;0.28;;;15.00;99.90;;;;;;5041937;28;20034;-85
2022/10/15 00:33:55;;;;;;;0.75;0.40;;;15.00;99.90;;;;;;5045011;28;20028;-84
2022/10/15 00:36:30;;;;;;;3.47;0.50;;;15.00;99.90;;;;;;5042908;28;20090;-84
2022/10/15 00:38:56;;;;;;;0.43;0.30;;;14.90;99.90;;;;;;5061244;28;20021;-84
2022/10/15 00:41:31;;;;;;;0.63;0.40;;;15.00;99.90;;;;;;5043184;28;20079;-85
2022/10/15 00:43:59;;;;;;;1.27;0.30;;;15.00;99.90;;;;;;5057237;28;20033;-85
2022/10/15 00:46:41;;;;;;;1.20;0.50;;;14.90;99.90;;;;;;5045413;28;20032;-85
2022/10/15 00:49:18;;;;;;;0.90;0.43;;;15.00;99.90;;;;;;5040783;28;20743;-85
2022/10/15 00:51:51;;;;;;;0.82;0.40;;;15.00;99.90;;;;;;5042277;28;20025;-85
2022/10/15 00:54:19;;;;;;;1.38;0.55;;;15.00;99.90;;;;;;5050167;28;20052;-84
2022/10/15 00:56:46;;;;;;;1.52;0.30;;;15.00;99.90;;;;;;5058307;28;20028;-82
2022/10/15 00:59:15;;;;;;;3.30;0.60;;;15.00;99.90;;;;;;5057530;28;20067;-84
2022/10/15 01:01:41;;;;;;;0.93;0.57;;;15.00;99.90;;;;;;5038643;28;20173;-85
2022/10/15 01:04:07;;;;;;;0.75;0.40;;;15.00;99.90;;;;;;5056565;28;20028;-84
2022/10/15 01:06:33;;;;;;;1.63;0.50;;;15.00;99.90;;;;;;5046539;28;20033;-83
2022/10/15 01:08:59;;;;;;;1.65;0.60;;;15.00;99.90;;;;;;5043929;28;20055;-82
2022/10/15 01:11:45;;;;;;;0.95;0.50;;;15.00;99.90;;;;;;5040195;28;20021;-85
2022/10/15 01:14:52;;;;;;;1.10;0.47;;;15.10;99.90;;;;;;5040197;28;20217;-84
2022/10/15 01:18:17;;;;;;;1.85;0.55;;;15.10;99.90;;;;;;5062191;28;20432;-85
2022/10/15 01:21:04;;;;;;;2.22;1.13;;;15.10;99.90;;;;;;5023882;28;20044;-84
2022/10/15 01:23:38;;;;;;;0.70;0.50;;;15.10;99.90;;;;;;5058438;28;20051;-85
2022/10/15 01:26:34;;;;;;;1.58;0.50;;;15.10;99.90;;;;;;5047880;28;20047;-86
2022/10/15 01:29:22;;;;;;;1.52;0.65;;;15.10;99.90;;;;;;5058903;28;20025;-86
2022/10/15 01:32:08;;;;;;;2.70;0.57;;;15.10;99.90;;;;;;5051458;28;20107;-86
2022/10/15 01:35:01;;;;;;;1.02;0.50;;;15.10;99.90;;;;;;5059563;28;20021;-85
2022/10/15 01:37:38;;;;;;;1.33;0.50;;;15.00;99.90;;;;;;5042871;28;20044;-85
2022/10/15 01:40:16;;;;;;;0.77;0.40;;;15.00;99.90;;;;;;5061803;28;20026;-86
2022/10/15 01:42:53;;;;;;;0.45;0.40;;;15.00;99.90;;;;;;5040252;28;20028;-86
2022/10/15 01:45:24;;;;;;;0.65;0.50;;;15.00;99.90;;;;;;5056973;28;20067;-85
2022/10/15 01:47:58;;;;;;;4.28;0.60;;;15.00;99.90;;;;;;5042926;28;20496;-85
2022/10/15 01:50:27;;;;;;;0.40;0.40;;;15.10;99.90;;;;;;5061425;28;20040;-85
2022/10/15 01:52:55;;;;;;;1.25;0.30;;;15.10;99.90;;;;;;5041010;28;20485;-84
2022/10/15 01:55:23;;;;;;;0.98;0.40;;;15.10;99.90;;;;;;5062810;28;20603;-85
2022/10/15 01:57:50;;;;;;;0.60;0.35;;;15.10;99.90;;;;;;5042604;28;20025;-85
2022/10/15 02:00:16;;;;;;;0.70;0.28;;;15.10;99.90;;;;;;5045531;28;20033;-85
2022/10/15 02:02:42;;;;;;;0.60;0.30;;;15.10;99.90;;;;;;5050895;23;20115;-75
2022/10/15 02:05:16;;;;;;;0.10;0.10;;;15.20;99.90;;;;;;5059312;28;20094;-73
2022/10/15 02:08:19;;;;;;;2.72;0.22;;;15.20;99.90;;;;;;5045950;28;20041;-75
2022/10/15 02:11:12;;;;;;;1.00;0.15;;;15.20;99.90;;;;;;5046280;28;20029;-76
2022/10/15 02:13:55;;;;;;;0.20;0.10;;;15.20;99.90;;;;;;5041959;28;20040;-74
2022/10/15 02:16:26;;;;;;;0.25;0.20;;;15.20;99.90;;;;;;5045921;28;20530;-73
2022/10/15 02:19:20;;;;;;;0.95;0.10;;;15.30;99.90;;;;;;5047792;28;20458;-74
2022/10/15 02:21:47;;;;;;;0.45;0.20;;;15.30;99.90;;;;;;5049389;28;20017;-72
2022/10/15 02:24:24;;;;;;;0.63;0.13;;;15.30;99.90;;;;;;5041260;28;20034;-73
2022/10/15 02:26:58;;;;;;;0.52;0.10;;;15.30;99.90;;;;;;5048743;28;20112;-73
2022/10/15 02:29:26;;;;;;;;;;;15.30;99.90;;;;;;5048040;28;20390;-73
2022/10/15 02:31:57;;;;;;;0.20;0.20;;;15.30;99.90;;;;;;5045242;28;19904;-74
2022/10/15 02:34:28;;;;;;;0.25;0.20;;;15.30;99.90;;;;;;5048657;28;20493;-73
2022/10/15 02:36:56;;;;;;;0.47;0.10;;;15.40;99.90;;;;;;5050384;28;20434;-74
2022/10/15 02:39:23;;;;;;;1.95;0.20;;;15.40;99.90;;;;;;5051263;28;20172;-74
2022/10/15 02:41:56;;;;;;;0.10;0.10;;;15.40;99.90;;;;;;5048120;28;20075;-74
2022/10/15 02:44:22;;;;;;;1.67;0.20;;;15.40;99.90;;;;;;5050919;28;20041;-74
2022/10/15 02:46:53;;;;;;;0.32;0.10;;;15.40;99.90;;;;;;5058053;28;20028;-73
2022/10/15 02:49:19;;;;;;;0.30;0.13;;;15.40;99.90;;;;;;5052417;28;20040;-73
2022/10/15 02:51:47;;;;;;;1.23;0.20;;;15.40;99.90;;;;;;5049493;28;20021;-73
2022/10/15 02:54:13;;;;;;;0.10;0.10;;;15.40;99.90;;;;;;5052190;28;20425;-74
2022/10/15 02:56:41;;;;;;;2.42;0.20;;;15.40;99.90;;;;;;5059327;28;20036;-74
2022/10/15 02:59:18;;;;;;;0.55;0.20;;;15.40;99.90;;;;;;5053906;28;20481;-74
2022/10/15 03:01:47;;;;;;;1.40;0.20;;;15.40;99.90;;;;;;5054187;28;20040;-74
2022/10/15 03:04:18;;;;;;;1.48;0.20;;;15.40;99.90;;;;;;5069461;28;20039;-74
2022/10/15 03:06:44;;;;;;;0.30;0.30;;;15.40;99.90;;;;;;5052859;28;20025;-74
2022/10/15 03:09:10;;;;;;;0.40;0.20;;;15.40;99.90;;;;;;5063906;28;20087;-74
2022/10/15 03:11:37;;;;;;;0.60;0.17;;;15.50;99.90;;;;;;5060815;28;20483;-73
2022/10/15 03:14:06;;;;;;;1.70;0.22;;;15.50;99.90;;;;;;5040552;28;20494;-73
2022/10/15 03:16:41;;;;;;;0.85;0.22;;;15.40;99.90;;;;;;5057182;28;20385;-73
2022/10/15 03:19:06;;;;;;;0.13;0.13;;;15.40;99.90;;;;;;5052194;28;20653;-73
2022/10/15 03:21:32;;;;;;;0.55;0.40;;;15.50;99.90;;;;;;5074337;28;20067;-73
2022/10/15 03:24:01;;;;;;;0.52;0.40;;;15.40;99.90;;;;;;5074812;28;20028;-73
2022/10/15 03:26:29;;;;;;;2.70;0.20;;;15.40;99.90;;;;;;5055441;28;20061;-74
2022/10/15 03:28:55;;;;;;;0.50;0.20;;;15.40;99.90;;;;;;5060548;28;20063;-73
2022/10/15 03:31:26;;;;;;;1.02;0.30;;;15.50;99.90;;;;;;5068922;28;20049;-74
2022/10/15 03:33:58;;;;;;;0.82;0.20;;;15.50;99.90;;;;;;5054431;28;20104;-73
2022/10/15 03:36:23;;;;;;;1.90;0.40;;;15.40;99.90;;;;;;5055638;28;20493;-71
2022/10/15 03:38:52;;;;;;;0.88;0.30;;;15.40;99.90;;;;;;5059577;28;20028;-73
2022/10/15 03:41:17;;;;;;;3.03;0.47;;;15.40;99.90;;;;;;5090852;28;20031;-73
2022/10/15 03:43:49;;;;;;;0.70;0.30;;;15.40;99.90;;;;;;5085624;28;20115;-73
2022/10/15 03:46:18;;;;;;;1.02;0.10;;;15.40;99.90;;;;;;5070233;28;20504;-73
2022/10/15 03:48:47;;;;;;;0.22;0.20;;;15.40;99.90;;;;;;5054616;28;20396;-73
2022/10/15 03:51:12;;;;;;;0.85;0.10;;;15.40;99.90;;;;;;5052583;28;20082;-72
2022/10/15 03:53:38;;;;;;;0.55;0.20;;;15.40;99.90;;;;;;5054685;28;20093;-72
2022/10/15 03:56:04;;;;;;;2.28;0.40;;;15.40;99.90;;;;;;5050021;28;20507;-74
2022/10/15 03:58:30;;;;;;;1.65;0.30;;;15.40;99.90;;;;;;5063321;28;20036;-74
2022/10/15 04:01:09;;;;;;;0.80;0.40;;;15.40;99.90;;;;;;5069393;28;20021;-73
2022/10/15 04:03:35;;;;;;;1.30;0.25;;;15.40;99.90;;;;;;5063430;28;20033;-71
2022/10/15 04:06:00;;;;;;;0.43;0.20;;;15.40;99.90;;;;;;5034750;28;20037;-72
2022/10/15 04:08:26;;;;;;;2.38;0.30;;;15.40;99.90;;;;;;5039336;28;20377;-72
2022/10/15 04:10:52;;;;;;;0.95;0.40;;;15.40;99.90;;;;;;5049561;28;20099;-73
2022/10/15 04:13:17;;;;;;;0.25;0.20;;;15.40;99.90;;;;;;5053253;28;20025;-72
2022/10/15 04:15:43;;;;;;;0.75;0.30;;;15.40;99.90;;;;;;5053766;28;20492;-73
2022/10/15 04:18:08;;;;;;;0.57;0.30;;;15.40;99.90;;;;;;5048779;28;20747;-73
2022/10/15 04:20:34;;;;;;;1.67;0.32;;;15.40;99.90;;;;;;5049348;28;20381;-73
2022/10/15 04:23:03;;;;;;;0.95;0.10;;;15.40;99.90;;;;;;5043865;28;20032;-73
2022/10/15 04:25:29;;;;;;;0.30;0.28;;;15.40;99.90;;;;;;5054191;28;20032;-73
2022/10/15 04:27:54;;;;;;;3.45;0.30;;;15.30;99.90;;;;;;5051406;28;20024;-73
2022/10/15 04:30:20;;;;;;;0.28;0.20;;;15.40;99.90;;;;;;5056397;28;20100;-74
2022/10/15 04:32:55;;;;;;;0.47;0.20;;;15.40;99.90;;;;;;5061029;28;20473;-73
2022/10/15 04:35:21;;;;;;;0.30;0.22;;;15.40;99.90;;;;;;5048018;28;20059;-72
2022/10/15 04:37:46;;;;;;;0.20;0.20;;;15.40;99.90;;;;;;5055035;28;20052;-74
2022/10/15 04:40:12;;;;;;;0.25;0.20;;;15.40;99.90;;;;;;5050452;28;20499;-73
2022/10/15 04:42:38;;;;;;;0.45;0.20;;;15.40;99.90;;;;;;5052663;28;20041;-73
2022/10/15 04:45:05;;;;;;;1.75;0.30;;;15.40;99.90;;;;;;5049039;28;20021;-73
2022/10/15 04:47:31;;;;;;;1.00;0.20;;;15.40;99.90;;;;;;5049958;28;20040;-72
2022/10/15 04:49:57;;;;;;;0.43;0.30;;;15.40;99.90;;;;;;5051109;28;20033;-71
2022/10/15 04:52:22;;;;;;;0.40;0.25;;;15.40;99.90;;;;;;5051253;28;20035;-72
2022/10/15 04:54:48;;;;;;;0.45;0.40;;;15.40;99.90;;;;;;5053368;28;20072;-72
2022/10/15 04:57:14;;;;;;;0.63;0.20;;;15.40;99.90;;;;;;5046899;28;20077;-72
2022/10/15 04:59:40;;;;;;;1.20;0.20;;;15.40;99.90;;;;;;5047923;28;20025;-72
2022/10/15 05:02:06;;;;;;;0.63;0.20;;;15.30;99.90;;;;;;5053447;28;20029;-71
2022/10/15 05:04:32;;;;;;;1.85;0.50;;;15.30;99.90;;;;;;5062648;28;20041;-72
2022/10/15 05:06:58;;;;;;;0.30;0.20;;;15.30;99.90;;;;;;5058989;28;20017;-72
2022/10/15 05:09:23;;;;;;;1.85;0.20;;;15.30;99.90;;;;;;5057064;28;20432;-73
2022/10/15 05:11:49;;;;;;;0.98;0.30;;;15.30;99.90;;;;;;5048720;28;20022;-72
2022/10/15 05:14:14;;;;;;;1.40;0.40;;;15.30;99.90;;;;;;5032047;28;20457;-71
2022/10/15 05:16:40;;;;;;;1.40;0.20;;;15.30;99.90;;;;;;5032154;28;20389;-71
2022/10/15 05:19:07;;;;;;;1.17;0.38;;;15.30;99.90;;;;;;5033288;28;20100;-71
2022/10/15 05:21:34;;;;;;;1.55;0.40;;;15.30;99.90;;;;;;5033327;28;20037;-71
2022/10/15 05:24:06;;;;;;;1.75;0.20;;;15.30;99.90;;;;;;5032390;28;20045;-70
2022/10/15 05:26:32;;;;;;;0.20;0.20;;;15.30;99.90;;;;;;5052221;28;20558;-71
2022/10/15 05:28:59;;;;;;;2.95;0.25;;;15.20;99.90;;;;;;5073035;28;20302;-71
2022/10/15 05:31:27;;;;;;;0.52;0.20;;;15.20;99.90;;;;;;5073113;28;20027;-71
2022/10/15 05:33:53;;;;;;;0.20;0.20;;;15.20;99.90;;;;;;5072895;28;20446;-71
2022/10/15 05:36:27;;;;;;;0.70;0.20;;;15.20;99.90;;;;;;5088278;28;20020;-71
2022/10/15 05:38:57;;;;;;;;;;;15.20;99.90;;;;;;5072226;28;20046;-71
2022/10/15 05:41:26;;;;;;;0.60;0.30;;;15.20;99.90;;;;;;5052129;28;19905;-71
2022/10/15 05:43:54;;;;;;;2.25;0.30;;;15.20;99.90;;;;;;5032707;28;20053;-73
2022/10/15 05:46:20;;;;;;;1.65;0.40;;;15.20;99.90;;;;;;5032873;28;20560;-71
2022/10/15 05:48:51;;;;;;;0.40;0.30;;;15.20;99.90;;;;;;5032628;28;20079;-71
2022/10/15 05:51:16;;;;;;;0.85;0.30;;;15.20;99.90;;;;;;5051510;28;20450;-72
2022/10/15 05:53:45;;;;;;;0.93;0.20;;;15.20;99.90;;;;;;5052627;28;20048;-72
2022/10/15 05:56:14;;;;;;;2.10;0.40;;;15.20;99.90;;;;;;5052084;28;20090;-73
2022/10/15 05:58:40;;;;;;;0.70;0.32;;;15.20;99.90;;;;;;5053269;28;20100;-72
2022/10/15 06:01:08;;;;;;;1.10;0.20;;;15.20;99.90;;;;;;5049032;28;20128;-72
2022/10/15 06:03:34;;;;;;;0.47;0.30;;;15.20;99.90;;;;;;5066813;28;20060;-72
2022/10/15 06:06:00;;;;;;;1.65;0.22;;;15.20;99.90;;;;;;5080036;28;20116;-72
2022/10/15 06:08:30;;;;;;;0.73;0.40;;;15.20;99.90;;;;;;5047642;28;20029;-75
2022/10/15 06:11:03;;;;;;;1.45;0.20;;;15.20;99.90;;;;;;5072157;28;20032;-71
2022/10/15 06:13:29;;;;;;;0.55;0.30;;;15.20;99.90;;;;;;5062547;28;20080;-72
2022/10/15 06:15:55;;;;;;;2.40;0.40;;;15.20;99.90;;;;;;5067552;28;20029;-71
2022/10/15 06:18:20;;;;;;;0.73;0.40;;;15.20;99.90;;;;;;5045845;28;20033;-69
2022/10/15 06:20:51;;;;;;;0.50;0.30;;;15.20;99.90;;;;;;5051514;28;20477;-70
2022/10/15 06:23:17;;;;;;;0.70;0.30;;;15.20;99.90;;;;;;5051815;28;20025;-71
2022/10/15 06:25:42;;;;;;;1.00;0.30;;;15.20;99.90;;;;;;5051245;28;20495;-70
2022/10/15 06:28:08;;;;;;;0.30;0.20;;;15.20;99.90;;;;;;5051925;28;20147;-71
2022/10/15 06:30:34;;;;;;;2.38;0.30;;;15.20;99.90;;;;;;5051761;28;20032;-72
2022/10/15 06:32:59;;;;;;;2.05;0.40;;;15.20;99.90;;;;;;5052037;28;20029;-73
2022/10/15 06:35:29;;;;;;;1.23;0.20;;;15.20;99.90;;;;;;5051873;28;20036;-72
2022/10/15 06:37:55;;;;;;;0.32;0.30;;;15.20;99.90;;;;;;5051936;28;20099;-76
2022/10/15 06:40:20;;;;;;;1.80;0.50;;;15.20;99.90;;;;;;5059728;28;20082;-72
2022/10/15 06:42:46;;;;;;;0.75;0.30;;;15.20;99.90;;;;;;5046065;28;20033;-72
2022/10/15 06:45:12;;;;;;;2.10;0.25;;;15.30;99.90;;;;;;5051505;28;20029;-72
2022/10/15 06:47:40;;;;;;;0.88;0.40;;;15.30;99.90;;;;;;5051761;28;20039;-72
2022/10/15 06:50:06;;;;;;;0.45;0.30;;;15.40;99.90;;;;;;5043768;28;20022;-73
2022/10/15 06:52:38;;;;;;;1.98;0.40;;;15.40;99.90;;;;;;5066180;28;20033;-73
2022/10/15 06:55:04;;;;;;;2.70;0.40;;;15.40;99.90;;;;;;5049958;28;20025;-72
2022/10/15 06:57:36;;;;;;;1.50;0.50;;;15.40;99.90;;;;;;5040238;28;20040;-71
2022/10/15 07:00:02;;;;;;;1.35;0.68;;;15.40;99.90;;;;;;5059613;28;20087;-70
2022/10/15 07:02:28;;;;;;;0.55;0.30;;;15.50;99.90;;;;;;5066687;28;20432;-71
2022/10/15 07:04:57;;;;;;;0.50;0.30;;;15.50;99.90;;;;;;5048383;28;20025;-71
2022/10/15 07:07:25;;;;;;;0.70;0.38;;;15.50;99.90;;;;;;5049366;28;20040;-72
2022/10/15 07:09:57;;;;;;;0.52;0.22;;;15.50;99.90;;;;;;5049717;28;20029;-71
2022/10/15 07:12:34;;;;;;;0.75;0.30;;;15.50;99.90;;;;;;5049692;28;20014;-71
2022/10/15 07:15:06;;;;;;;0.55;0.30;;;15.60;99.90;;;;;;5047392;28;20386;-71
2022/10/15 07:17:34;;;;;;;1.25;0.40;;;15.60;99.90;;;;;;5047808;28;20032;-72
2022/10/15 07:20:03;;;;;;;1.38;0.60;;;15.60;99.90;;;;;;5051508;28;20051;-72
2022/10/15 07:22:28;;;;;;;0.57;0.25;;;15.60;99.90;;;;;;5051825;28;20056;-72
2022/10/15 07:24:54;;;;;;;0.68;0.40;;;15.60;99.90;;;;;;5050778;28;20052;-73
2022/10/15 07:27:19;;;;;;;0.43;0.30;;;15.70;99.90;;;;;;5051357;28;20450;-72
2022/10/15 07:29:45;;;;;;;0.20;0.20;;;15.70;99.90;;;;;;5051512;28;20064;-72
2022/10/15 07:32:14;;;;;;;0.80;0.30;;;15.70;99.90;;;;;;5051481;28;20025;-72
2022/10/15 07:34:40;;;;;;;0.45;0.35;;;15.70;99.90;;;;;;5050957;28;20060;-72
2022/10/15 07:37:24;;;;;;;1.23;0.35;;;15.80;99.90;;;;;;5053772;28;20437;-72
2022/10/15 07:39:49;;;;;;;0.43;0.30;;;15.80;99.90;;;;;;5038519;28;20029;-72
2022/10/15 07:42:19;;;;;;;0.52;0.30;;;15.70;99.90;;;;;;5035003;28;20045;-72
2022/10/15 07:44:44;;;;;;;0.30;0.30;;;15.80;99.90;;;;;;5059026;28;20027;-72
2022/10/15 07:47:13;;;;;;;0.63;0.50;;;15.80;99.90;;;;;;5062285;28;20025;-72
2022/10/15 07:49:54;;;;;;;1.17;0.50;;;15.80;99.90;;;;;;5054447;28;20389;-72
2022/10/15 07:52:29;;;;;;;0.28;0.28;;;15.80;99.90;;;;;;5034858;28;20422;-72
2022/10/15 07:55:01;;;;;;;0.65;0.50;;;15.80;99.90;;;;;;5034871;28;20017;-72
2022/10/15 07:57:26;;;;;;;0.40;0.30;;;15.80;99.90;;;;;;5049567;28;20494;-72
2022/10/15 07:59:52;;;;;;;0.47;0.35;;;15.80;99.90;;;;;;5070011;28;20163;-73
2022/10/15 08:02:18;;;;;;;0.47;0.22;;;15.80;99.90;;;;;;5054514;28;20736;-72
2022/10/15 08:04:47;;;;;;;1.48;0.20;;;15.90;99.90;;;;;;5054742;28;20032;-73
2022/10/15 08:07:12;;;;;;;1.27;0.43;;;15.90;99.90;;;;;;5054402;28;20033;-71
2022/10/15 08:09:38;;;;;;;1.30;0.60;;;15.90;99.90;;;;;;5053191;28;20446;-72
2022/10/15 08:12:07;;;;;;;1.45;0.30;;;16.00;99.90;;;;;;5050265;28;20021;-72
2022/10/15 08:14:36;;;;;;;1.88;0.28;;;16.10;99.90;;;;;;5065284;28;20032;-72
2022/10/15 08:17:03;;;;;;;0.68;0.30;;;16.10;99.90;;;;;;5053400;22;20052;-75
2022/10/15 08:19:32;;;;;;;2.90;0.50;;;16.20;99.90;;;;;;5034591;28;20056;-75
2022/10/15 08:21:58;;;;;;;0.57;0.50;;;16.20;99.90;;;;;;5033357;28;20030;-75
2022/10/15 08:24:26;;;;;;;2.35;0.55;;;16.30;99.90;;;;;;5029712;28;20080;-76
2022/10/15 08:26:52;;;;;;;0.93;0.60;;;16.30;99.90;;;;;;5032887;28;20029;-76
2022/10/15 08:29:20;;;;;;;3.03;0.45;;;16.40;99.90;;;;;;5034269;28;20091;-75
2022/10/15 08:31:46;;;;;;;1.38;0.75;;;16.50;99.90;;;;;;5034222;28;20022;-75
2022/10/15 08:34:15;;;;;;;1.08;0.60;;;16.60;99.90;;;;;;5034410;28;20084;-75
2022/10/15 08:36:50;;;;;;;2.13;0.70;;;16.60;99.90;;;;;;5033830;28;20421;-75
2022/10/15 08:39:21;;;;;;;2.58;0.73;;;16.70;99.90;;;;;;5034172;28;20436;-76
2022/10/15 08:41:53;;;;;;;2.20;0.70;;;16.80;99.90;;;;;;5034026;28;20034;-75
2022/10/15 08:44:40;;;;;;;1.30;0.50;;;16.90;99.90;;;;;;5049359;28;20033;-76
2022/10/15 08:47:17;;;;;;;0.75;0.65;;;17.00;99.90;;;;;;5032828;28;20469;-75
2022/10/15 08:49:49;;;;;;;2.53;0.75;;;17.10;99.90;;;;;;5034236;28;20017;-76
2022/10/15 08:52:52;;;;;;;3.10;0.68;;;17.20;99.90;;;;;;5034205;28;20037;-75
2022/10/15 08:55:21;;;;;;;0.70;0.57;;;17.30;99.90;;;;;;5033362;28;20026;-76
2022/10/15 08:58:29;;;;;;;0.88;0.40;;;17.40;99.90;;;;;;5033175;28;20120;-76
2022/10/15 09:01:08;;;;;;;0.95;0.60;;;17.50;99.90;;;;;;5033900;28;20022;-76
2022/10/15 09:04:12;;;;;;;2.17;0.60;;;17.50;99.90;;;;;;5034233;28;20057;-76
2022/10/15 09:06:50;;;;;;;0.95;0.73;;;17.60;99.90;;;;;;5033951;28;20064;-76
2022/10/15 09:10:01;;;;;;;1.92;0.57;;;17.70;99.90;;;;;;5033844;28;20029;-75
2022/10/15 09:12:44;;;;;;;1.48;0.40;;;17.80;99.90;;;;;;5017703;28;20461;-76
2022/10/15 09:15:15;;;;;;;1.33;0.52;;;17.80;99.90;;;;;;5048803;28;20025;-76
2022/10/15 09:17:42;;;;;;;1.83;0.60;;;17.90;99.90;;;;;;5033695;28;20063;-76
2022/10/15 09:20:28;;;;;;;3.88;0.55;;;17.90;99.90;;;;;;5033600;28;20021;-76
2022/10/15 09:22:57;;;;;;;2.25;0.90;;;17.90;99.90;;;;;;5033462;28;20518;-76
2022/10/15 09:25:33;;;;;;;3.50;0.57;;;17.90;99.90;;;;;;5034048;28;20029;-75
2022/10/15 09:28:07;;;;;;;6.70;1.02;;;17.90;99.90;;;;;;5049014;28;20109;-76
2022/10/15 09:30:36;;;;;;;;;;;17.90;99.90;;;;;;5034180;28;20064;-76
2022/10/15 09:33:28;;;;;;;1.98;0.95;;;17.90;99.90;;;;;;5033459;28;19916;-76
2022/10/15 09:36:31;;;;;;;5.47;1.02;;;18.00;99.90;;;;;;5033330;28;20494;-75
2022/10/15 09:39:20;;;;;;;3.22;0.63;;;18.00;99.90;;;;;;5033257;28;20090;-76
2022/10/15 09:41:58;;;;;;;2.15;0.70;;;18.00;99.90;;;;;;5015264;28;20061;-75
2022/10/15 09:44:30;;;;;;;9.10;1.05;;;18.10;99.90;;;;;;5048682;28;20044;-76
2022/10/15 09:47:16;;;;;;;3.90;0.85;;;18.10;99.90;;;;;;5033602;28;20621;-77
2022/10/15 09:49:44;;;;;;;2.17;0.50;;;18.00;99.90;;;;;;5033276;28;20394;-76
2022/10/15 09:52:25;;;;;;;4.82;0.70;;;18.00;99.90;;;;;;5032331;28;20091;-76
2022/10/15 09:54:56;;;;;;;3.20;0.70;;;18.00;99.90;;;;;;5031469;28;20095;-75
2022/10/15 09:57:23;;;;;;;1.42;0.60;;;18.00;99.90;;;;;;5033207;28;20028;-77
2022/10/15 10:00:07;;;;;;;2.35;0.50;;;18.00;99.90;;;;;;5031660;28;20025;-76
2022/10/15 10:02:33;;;;;;;3.95;0.80;;;17.90;99.90;;;;;;5033205;28;20044;-76
2022/10/15 10:05:37;;;;;;;6.90;1.30;;;17.90;99.90;;;;;;5032686;28;20037;-76
2022/10/15 10:08:15;;;;;;;;;;;17.90;99.90;;;;;;4961364;28;20073;-75
2022/10/15 10:10:41;;;;;;;2.05;0.50;;;17.90;99.90;;;;;;4971706;28;19906;-77
2022/10/15 10:13:23;;;;;;;1.25;0.77;;;17.90;99.90;;;;;;5005247;28;20107;-76
2022/10/15 10:16:09;;;;;;;2.97;0.50;;;17.90;99.90;;;;;;5032245;28;20072;-76
2022/10/15 10:18:36;;;;;;;6.93;1.00;;;18.00;99.90;;;;;;5031384;28;20022;-75
2022/10/15 10:21:05;;;;;;;2.70;0.50;;;18.00;99.90;;;;;;5031156;28;20037;-76
2022/10/15 10:23:38;;;;;;;2.33;0.50;;;18.00;99.90;;;;;;5032360;28;20104;-76
2022/10/15 10:26:09;;;;;;;3.15;0.82;;;18.10;99.90;;;;;;5032349;28;20026;-76
2022/10/15 10:28:51;;;;;;;2.13;0.73;;;18.20;99.90;;;;;;5031383;28;20036;-75
2022/10/15 10:31:25;;;;;;;3.15;0.60;;;18.30;99.90;;;;;;5032594;28;20418;-76
2022/10/15 10:33:51;;;;;;;;;;;18.40;99.90;;;;;;5048372;28;20030;-76
2022/10/15 10:36:34;;;;;;;1.25;0.60;;;18.60;99.90;;;;;;5032109;28;19909;-76
2022/10/15 10:39:12;;;;;;;1.90;0.80;;;18.70;99.90;;;;;;5047816;28;20087;-76
2022/10/15 10:41:59;;;;;;;2.50;0.85;;;18.80;99.90;;;;;;5032486;28;20029;-76
2022/10/15 10:44:45;;;;;;;2.30;0.85;;;18.90;99.90;;;;;;5032283;28;20112;-76
2022/10/15 10:47:15;;;;;;;3.42;1.00;;;18.90;99.90;;;;;;5028113;28;20096;-76
2022/10/15 10:49:41;;;;;;;1.80;0.82;;;18.90;99.90;;;;;;5027686;28;20033;-76
2022/10/15 10:52:29;;;;;;;2.88;0.80;;;18.90;99.90;;;;;;5024060;28;20321;-76
2022/10/15 10:55:24;;;;;;;1.60;0.52;;;19.00;99.90;;;;;;5012368;28;20037;-76
2022/10/15 10:58:00;;;;;;;2.42;0.60;;;19.10;99.90;;;;;;5024941;28;20072;-76
2022/10/15 11:00:49;;;;;;;1.15;0.68;;;19.20;99.90;;;;;;5047267;28;20021;-76
2022/10/15 11:03:47;;;;;;;3.15;0.80;;;19.20;99.90;;;;;;5020273;28;20064;-76
2022/10/15 11:06:59;;;;;;;6.65;0.95;;;19.20;99.90;;;;;;5046696;28;20419;-76
2022/10/15 11:10:01;;;;;;;4.13;0.95;;;19.30;99.90;;;;;;5047172;28;20021;-76
2022/10/15 11:13:04;;;;;;;3.47;1.50;;;19.30;99.90;;;;;;5031374;28;20105;-76
2022/10/15 11:16:19;;;;;;;2.58;0.80;;;19.30;99.90;;;;;;5015923;28;20441;-76
2022/10/15 11:19:10;;;;;;;1.83;1.02;;;19.30;99.90;;;;;;5014533;28;20156;-76
2022/10/15 11:21:45;;;;;;;1.83;1.05;;;19.30;99.90;;;;;;5027340;28;20022;-76
2022/10/15 11:24:14;;;;;;;1.88;0.68;;;19.20;99.90;;;;;;5047103;28;20117;-76
2022/10/15 11:27:00;;;;;;;3.58;0.77;;;19.20;99.90;;;;;;5019291;28;20052;-76
2022/10/15 11:29:34;;;;;;;2.60;0.88;;;19.20;99.90;;;;;;5035432;28;20025;-76
2022/10/15 11:32:15;;;;;;;2.42;0.57;;;19.10;99.90;;;;;;5051067;28;20521;-76
2022/10/15 11:35:08;;;;;;;3.90;1.58;;;19.00;99.90;;;;;;5035769;28;20048;-76
2022/10/15 11:38:19;;;;;;;1.85;0.73;;;19.00;99.90;;;;;;5035362;28;20034;-76
2022/10/15 11:41:06;;;;;;;4.38;0.88;;;19.00;99.90;;;;;;5011890;28;20544;-76
2022/10/15 11:44:20;;;;;;;3.53;0.80;;;18.90;99.90;;;;;;5050186;28;20026;-76
2022/10/15 11:47:04;;;;;;;3.00;0.52;;;19.00;99.90;;;;;;5021232;28;20042;-76
2022/10/15 11:49:36;;;;;;;1.25;0.70;;;19.00;99.90;;;;;;5027308;28;20028;-76
2022/10/15 11:52:03;;;;;;;2.70;0.70;;;19.00;99.90;;;;;;5048122;28;20068;-76
2022/10/15 11:55:06;;;;;;;1.92;0.70;;;19.00;99.90;;;;;;5035160;28;20059;-76
2022/10/15 11:57:47;;;;;;;1.88;0.70;;;19.10;99.90;;;;;;5034812;28;20512;-76
2022/10/15 12:00:38;;;;;;;3.22;0.50;;;19.20;99.90;;;;;;5028915;28;20030;-76
2022/10/15 12:03:26;;;;;;;2.05;0.60;;;19.20;99.90;;;;;;5047734;28;20025;-76
2022/10/15 12:06:14;;;;;;;1.30;0.80;;;19.30;99.90;;;;;;5030406;28;20153;-76
2022/10/15 12:08:41;;;;;;;1.60;0.50;;;19.30;99.90;;;;;;5039478;28;20110;-76
2022/10/15 12:11:48;;;;;;;6.13;0.68;;;19.30;99.90;;;;;;5034760;28;20512;-76
2022/10/15 12:14:29;;;;;;;3.25;0.50;;;19.40;99.90;;;;;;5033026;28;20032;-76
2022/10/15 12:17:29;;;;;;;3.00;0.73;;;19.40;99.90;;;;;;5049811;28;20029;-76
2022/10/15 12:20:05;;;;;;;2.10;0.90;;;19.40;99.90;;;;;;5022562;28;20030;-75
2022/10/15 12:22:38;;;;;;;1.48;0.70;;;19.50;99.90;;;;;;5049953;28;20037;-76
2022/10/15 12:25:05;;;;;;;5.32;0.98;;;19.60;99.90;;;;;;5050297;28;20112;-76
2022/10/15 12:27:35;;;;;;;3.78;1.00;;;19.70;99.90;;;;;;5033237;28;20112;-76
2022/10/15 12:30:01;;;;;;;1.38;0.80;;;19.70;99.90;;;;;;5039818;28;20053;-76
2022/10/15 12:32:37;;;;;;;1.42;0.70;;;19.80;99.90;;;;;;5034636;28;20057;-76
2022/10/15 12:35:06;;;;;;;2.03;0.70;;;19.90;99.90;;;;;;5034626;28;20071;-76
2022/10/15 12:37:34;;;;;;;5.50;0.82;;;19.90;99.90;;;;;;5034458;28;20030;-76
2022/10/15 12:40:26;;;;;;;1.85;0.60;;;19.80;99.90;;;;;;5050009;28;20529;-76
2022/10/15 12:42:55;;;;;;;2.00;0.70;;;19.80;99.90;;;;;;5014616;28;20022;-76
2022/10/15 12:45:48;;;;;;;2.25;0.95;;;19.80;99.90;;;;;;5023466;28;20401;-76
2022/10/15 12:48:14;;;;;;;2.85;1.50;;;19.80;99.90;;;;;;5034180;28;20036;-76
2022/10/15 12:50:43;;;;;;;1.58;0.70;;;19.80;99.90;;;;;;5049653;28;20021;-76
2022/10/15 12:53:28;;;;;;;2.40;0.52;;;19.90;99.90;;;;;;5034006;28;20090;-76
2022/10/15 12:56:09;;;;;;;2.72;1.00;;;19.90;99.90;;;;;;5033970;28;20294;-76
2022/10/15 12:58:41;;;;;;;2.28;0.80;;;19.90;99.90;;;;;;5033788;28;20068;-77
2022/10/15 13:01:12;;;;;;;1.70;0.68;;;19.90;99.90;;;;;;5025293;28;20061;-74
2022/10/15 13:03:49;;;;;;;1.88;0.80;;;19.80;99.90;;;;;;5049270;28;20033;-75
2022/10/15 13:06:24;;;;;;;1.33;0.68;;;19.80;99.90;;;;;;5033845;28;20386;-75
2022/10/15 13:09:10;;;;;;;2.08;0.60;;;19.80;99.90;;;;;;5032595;28;20053;-75
2022/10/15 13:11:39;;;;;;;3.03;0.80;;;19.80;99.90;;;;;;5033641;28;20037;-75
2022/10/15 13:14:36;;;;;;;4.32;1.60;;;19.80;99.90;;;;;;5033679;28;20032;-74
2022/10/15 13:17:17;;;;;;;2.20;0.80;;;19.80;99.90;;;;;;5033339;28;20021;-74
2022/10/15 13:20:09;;;;;;;3.35;0.88;;;19.80;99.90;;;;;;5033453;28;20033;-74
2022/10/15 13:22:37;;;;;;;1.27;0.77;;;19.80;99.90;;;;;;5020119;28;20418;-74